Airfield :
LOGIN :

Register | Disclaimer

   EN    FR    IT 

 










Legend :    VFR   Marginal VFR   IFR   Intensive IFR   Very Intensive IFR
Visi :
Ceiling :
>= 8 km
>= 3000ft
5 to 8 km
1000 to 3000 ft
1500m to 5 km
500 to 1000 ft
800 to 1500m
200 to 500 ft
< 800m
< 200 ft
Symbols :   Thunderstorms  Fog  Heavy snow  Heavy precipitations  Wind > 20 kt
SIGMETs :     Misc.  Thunderstorms  Icing  Turbulence  Mountain Waves  Volcanic Ashes






- Airport Elevation : 614 ft
- IATA code : CRL


EBCI - Charleroi

CURRENT METAR :
  • 151020Z 20009KT 160V240 9999 SCT035 23/14 Q1006 TEMPO 4000 SHRA

EXPIRED METARs :
  • 150950Z 20007KT 150V240 9999 FEW033 23/14 Q1006 NOSIG
  • 150920Z 21008KT 170V240 9999 FEW030 23/14 Q1006 NOSIG
  • 150850Z 19008KT 160V220 9999 FEW030 22/14 Q1006 NOSIG
  • 150820Z 19008KT CAVOK 20/14 Q1006 NOSIG
  • 150750Z 20008KT CAVOK 20/14 Q1006 NOSIG

TAF TAF EBCI
Valid from the 15 at 06:00 until the 16 at 12:00 UTC


150515Z 1506/1612 22010KT CAVOK
TEMPO 1510/1520 3500 SHRA TSRA
PROB40
TEMPO 1511/1519 VRB15G35KT 2500 +SHRA TSRAGR
PROB30
TEMPO 1610/1612 4000 SHRA



MET'MAP, your aeronautical weather chart ! - Copyright ORBIFLY December 2007 - Disclaimer

ORBIFLY MET'MAP TEAM :

Programming & Development : Alexandra Zaïnal
Original concept : Baudouin d'Aumeries
Technical & hardware support : Manuel Goepfert
Assistance : Marc-Olivier Méhu




SOURCES & CREDITS :

   NOAA